Tobol'Sk, Russia
Current Conditions -  °F | °C
As of 7:00 PM on Wednesday 28 Jan 2015 (Local Time) from USTR Reporting Station
Blowing Snow Blowing Snow  
Wind Chill: -1°   Ceiling: Unl
Heat Index: 14°   Visibility: 6mi
Dew Point: -4°   Wind: 13mph
Humidity: 45%   Direction: 210°SSW
Pressure: 30.21"   Gusts: 20mph
Location:  58.15°N, 68.25°E
Report Text: USTR 281400Z 21006G09MPS 9999 DRSN NSC M10/M20 Q1023 NOSIG RMKQFE757/1010 21CLRD65 30750029
Loading
Personal Weather Stations






























Interactive Weather Map New forecast layout! Learn more

10-Day Weather Forecast

Advertisements
Track Severe Weather on mobile